TN01 weather

Ray Airport
Rosemark, Tennessee, United States

Public forecast

Using degrees Fahrenheit for public forecast. Weather courtesy of forecast.io.

METAR (pilot weather report)

Closest report is Millington-Memphis Airport, 2.6 nm (4.7 km) WNW. Retrieved 2019/08/19 20:50 UTC (44 minutes ago):

KNQA 192050Z 00000KT 10SM SCT035 34/24 A2997

TAF (pilot weather forecast)

Closest forecast is Memphis International Airport, 19.9 nm (36.8 km) SSW. Retrieved 2019/08/19 18:36 UTC (3 hours ago):

TAF KMEM 191735Z 1918/2024 13005KT P6SM SCT040 SCT250 FM192100 16005KT P6SM VCSH SCT040 BKN250 FM200100 17004KT P6SM SCT250 TEMPO 2010/2013 5SM BR FM201400 19005KT P6SM SCT040 FM202100 20005KT P6SM VCSH SCT050 SCT250